Time;durP1;ratioP1;P1;durP2;ratioP2;P2;SDS_P1;SDS_P2;PMS_P1;PMS_P2;Temp;Humidity;BMP_temperature;BMP_pressure;BME280_temperature;BME280_humidity;BME280_pressure;Samples;Min_cycle;Max_cycle;Signal;HPM_P1;HPM_P2
2021/07/21 00:00:09;;;;;;;;;;;;;;;;;;1036593;28;20273;-76
2021/07/21 00:00:40;;;;;;;;;;;;;;;;;;1032270;28;20005;-76
2021/07/21 00:01:10;;;;;;;;;;;;;;;;;;1036555;28;19909;-78
2021/07/21 00:01:40;;;;;;;;;;;;;;;;;;1036494;28;19910;-76
2021/07/21 00:02:10;;;;;;;;;;;;;;;;;;1040593;28;19910;-76
2021/07/21 00:02:41;;;;;;;;;;;;;;;;;;1040359;28;19985;-76
2021/07/21 00:03:11;;;;;;;;;;;;;;;;;;1032386;28;20470;-76
2021/07/21 00:03:41;;;;;;;;;;;;;;;;;;1032367;28;19960;-76
2021/07/21 00:04:11;;;;;;;;;;;;;;;;;;1032434;28;19916;-77
2021/07/21 00:04:42;;;;;;;;;;;;;;;;;;1036290;28;20089;-76
2021/07/21 00:05:12;;;;;;;;;;;;;;;;;;1036406;28;20000;-76
2021/07/21 00:05:42;;;;;;;;;;;;;;;;;;1032174;28;19914;-76
2021/07/21 00:06:13;;;;;;;;;;;;;;;;;;1032301;28;19910;-76
2021/07/21 00:06:43;;;;;;;;;;;;;;;;;;1032219;28;19914;-76
2021/07/21 00:07:14;;;;;;;;;;;;;;;;;;1036495;28;20421;-76
2021/07/21 00:07:44;;;;;;;;;;;;;;;;;;1036709;28;19960;-77
2021/07/21 00:08:14;;;;;;;;;;;;;;;;;;1036232;28;19910;-76
2021/07/21 00:08:44;;;;;;;;;;;;;;;;;;1040480;28;19909;-76
2021/07/21 00:09:15;;;;;;;;;;;;;;;;;;1036241;28;19996;-76
2021/07/21 00:09:45;;;;;;;;;;;;;;;;;;1036498;28;19909;-76
2021/07/21 00:10:15;;;;;;;;;;;;;;;;;;1040547;28;19913;-77
2021/07/21 00:10:48;;;;;;;;;;;;;;;;;;1040464;28;19913;-76
2021/07/21 00:13:44;;;;;;;;;;;;;;;;;;1036620;28;19964;-76
2021/07/21 00:14:21;;;;;;;;;;;;;;;;;;1036472;28;20012;-76
2021/07/21 00:14:51;;;;;;;;;;;;;;;;;;1036607;28;19917;-76
2021/07/21 00:15:21;;;;;;;;;;;;;;;;;;1036452;28;20008;-76
2021/07/21 00:16:35;;;;;;;;;;;;;;;;;;1040709;28;19954;-77
2021/07/21 00:17:17;;;;;;;;;;;;;;;;;;1036390;28;19913;-76
2021/07/21 00:17:57;;;;;;;;;;;;;;;;;;1033113;28;19945;-76
2021/07/21 00:18:38;;;;;;;;;;;;;;;;;;1036028;28;19909;-77
2021/07/21 00:20:06;;;;;;;;;;;;;;;;;;1036680;28;19916;-77
2021/07/21 00:20:37;;;;;;;;;;;;;;;;;;1036650;28;19920;-76
2021/07/21 00:21:07;;;;;;;;;;;;;;;;;;1036465;28;19932;-77
2021/07/21 00:21:37;;;;;;;;;;;;;;;;;;1036544;28;19906;-76
2021/07/21 00:22:07;;;;;;;;;;;;;;;;;;1036551;28;19958;-77
2021/07/21 00:22:37;;;;;;;;;;;;;;;;;;1036521;28;20119;-77
2021/07/21 00:23:08;;;;;;;;;;;;;;;;;;1036839;28;19968;-77
2021/07/21 00:23:39;;;;;;;;;;;;;;;;;;1044584;28;19909;-76
2021/07/21 00:24:09;;;;;;;;;;;;;;;;;;1036386;28;19910;-76
2021/07/21 00:24:39;;;;;;;;;;;;;;;;;;1036385;28;19906;-77
2021/07/21 00:25:09;;;;;;;;;;;;;;;;;;1032067;28;19910;-76
2021/07/21 00:25:40;;;;;;;;;;;;;;;;;;1028204;28;19961;-76
2021/07/21 00:26:10;;;;;;;;;;;;;;;;;;1028479;28;19906;-76
2021/07/21 00:26:40;;;;;;;;;;;;;;;;;;1028230;28;19907;-76
2021/07/21 00:27:10;;;;;;;;;;;;;;;;;;1032354;28;19902;-76
2021/07/21 00:27:41;;;;;;;;;;;;;;;;;;1032251;28;19912;-76
2021/07/21 00:28:11;;;;;;;;;;;;;;;;;;1032549;28;20471;-76
2021/07/21 00:28:41;;;;;;;;;;;;;;;;;;1040354;28;19906;-76
2021/07/21 00:29:12;;;;;;;;;;;;;;;;;;1040309;28;19955;-75
2021/07/21 00:29:42;;;;;;;;;;;;;;;;;;1040453;28;19909;-76
2021/07/21 00:30:12;;;;;;;;;;;;;;;;;;1040636;28;19901;-76
2021/07/21 00:30:42;;;;;;;;;;;;;;;;;;1032303;28;20336;-76
2021/07/21 00:31:15;;;;;;;;;;;;;;;;;;1036573;28;19910;-76
2021/07/21 00:31:45;;;;;;;;;;;;;;;;;;1032129;28;19957;-76
2021/07/21 00:32:16;;;;;;;;;;;;;;;;;;1032910;28;19928;-77
2021/07/21 00:32:46;;;;;;;;;;;;;;;;;;1036442;28;19996;-77
2021/07/21 00:33:16;;;;;;;;;;;;;;;;;;1032473;28;19993;-77
2021/07/21 00:33:47;;;;;;;;;;;;;;;;;;1032317;28;19956;-76
2021/07/21 00:34:18;;;;;;;;;;;;;;;;;;1032511;28;19906;-76
2021/07/21 00:34:48;;;;;;;;;;;;;;;;;;1032500;28;19906;-76
2021/07/21 00:35:18;;;;;;;;;;;;;;;;;;1040323;28;19912;-76
2021/07/21 00:35:49;;;;;;;;;;;;;;;;;;1040992;28;19906;-76
2021/07/21 00:36:19;;;;;;;;;;;;;;;;;;1037133;28;19909;-76
2021/07/21 00:36:49;;;;;;;;;;;;;;;;;;1037145;28;19929;-76
2021/07/21 00:37:19;;;;;;;;;;;;;;;;;;1033140;28;19937;-76
2021/07/21 00:37:50;;;;;;;;;;;;;;;;;;1037184;28;20012;-76
2021/07/21 00:38:20;;;;;;;;;;;;;;;;;;1037071;28;19949;-76
2021/07/21 00:38:50;;;;;;;;;;;;;;;;;;1033076;28;19910;-76
2021/07/21 00:39:20;;;;;;;;;;;;;;;;;;1037183;28;19906;-77
2021/07/21 00:39:51;;;;;;;;;;;;;;;;;;1037149;28;19906;-76
2021/07/21 00:40:21;;;;;;;;;;;;;;;;;;1041297;28;19913;-77
2021/07/21 00:40:51;;;;;;;;;;;;;;;;;;1041239;28;19905;-77
2021/07/21 00:41:21;;;;;;;;;;;;;;;;;;1029145;28;19977;-76
2021/07/21 00:41:52;;;;;;;;;;;;;;;;;;1029007;28;20357;-76
2021/07/21 00:42:22;;;;;;;;;;;;;;;;;;1028969;28;19925;-76
2021/07/21 00:42:52;;;;;;;;;;;;;;;;;;1033182;28;19941;-76
2021/07/21 00:43:22;;;;;;;;;;;;;;;;;;1033016;28;20408;-76
2021/07/21 00:43:53;;;;;;;;;;;;;;;;;;1033199;28;19957;-77
2021/07/21 00:44:23;;;;;;;;;;;;;;;;;;1037052;28;19913;-76
2021/07/21 00:44:53;;;;;;;;;;;;;;;;;;1037261;28;19913;-76
2021/07/21 00:45:23;;;;;;;;;;;;;;;;;;1041339;28;20000;-76
2021/07/21 00:45:54;;;;;;;;;;;;;;;;;;1036971;28;19910;-76
2021/07/21 00:46:24;;;;;;;;;;;;;;;;;;1032990;28;20004;-75
2021/07/21 00:46:54;;;;;;;;;;;;;;;;;;1033079;28;20040;-76
2021/07/21 00:47:24;;;;;;;;;;;;;;;;;;1033142;28;19977;-77
2021/07/21 00:47:55;;;;;;;;;;;;;;;;;;1037225;28;19916;-76
2021/07/21 00:48:25;;;;;;;;;;;;;;;;;;1037427;28;19964;-76
2021/07/21 00:48:55;;;;;;;;;;;;;;;;;;1045214;28;19916;-76
2021/07/21 00:49:25;;;;;;;;;;;;;;;;;;1045328;28;19913;-76
2021/07/21 00:49:56;;;;;;;;;;;;;;;;;;1041165;28;19909;-77
2021/07/21 00:50:26;;;;;;;;;;;;;;;;;;1041195;28;19909;-76
2021/07/21 00:50:56;;;;;;;;;;;;;;;;;;1037124;28;19909;-76
2021/07/21 00:51:27;;;;;;;;;;;;;;;;;;1041318;28;19909;-76
2021/07/21 00:51:57;;;;;;;;;;;;;;;;;;1045261;28;19908;-77
2021/07/21 00:52:27;;;;;;;;;;;;;;;;;;1045288;28;19908;-76
2021/07/21 00:52:57;;;;;;;;;;;;;;;;;;1041046;28;20000;-76
2021/07/21 00:53:28;;;;;;;;;;;;;;;;;;1037058;28;19906;-76
2021/07/21 00:53:58;;;;;;;;;;;;;;;;;;1037134;28;19913;-76
2021/07/21 00:54:28;;;;;;;;;;;;;;;;;;1037061;28;19915;-76
2021/07/21 00:54:59;;;;;;;;;;;;;;;;;;1032946;28;19910;-76
2021/07/21 00:55:29;;;;;;;;;;;;;;;;;;1041137;28;19991;-76
2021/07/21 00:55:59;;;;;;;;;;;;;;;;;;1041096;28;19909;-76
2021/07/21 00:56:30;;;;;;;;;;;;;;;;;;1041385;28;20011;-76
2021/07/21 00:57:00;;;;;;;;;;;;;;;;;;1045340;28;19905;-77
2021/07/21 00:57:30;;;;;;;;;;;;;;;;;;1041189;28;20039;-76
2021/07/21 00:58:01;;;;;;;;;;;;;;;;;;1037386;28;19906;-77
2021/07/21 00:58:31;;;;;;;;;;;;;;;;;;1036920;28;19941;-76
2021/07/21 00:59:01;;;;;;;;;;;;;;;;;;1037001;28;19905;-76
2021/07/21 00:59:31;;;;;;;;;;;;;;;;;;1037212;28;20363;-76
2021/07/21 01:00:02;;;;;;;;;;;;;;;;;;1041211;28;19955;-76
2021/07/21 01:00:32;;;;;;;;;;;;;;;;;;1048479;28;19905;-77
2021/07/21 01:01:02;;;;;;;;;;;;;;;;;;1049208;28;19973;-77
2021/07/21 01:01:34;;;;;;;;;;;;;;;;;;1044834;28;19925;-76
2021/07/21 01:02:05;;;;;;;;;;;;;;;;;;1036772;28;20015;-76
2021/07/21 01:02:35;;;;;;;;;;;;;;;;;;1040090;28;19916;-77
2021/07/21 01:03:05;;;;;;;;;;;;;;;;;;1036753;28;19965;-77
2021/07/21 01:03:35;;;;;;;;;;;;;;;;;;1040207;28;19957;-77
2021/07/21 01:04:06;;;;;;;;;;;;;;;;;;1042064;28;19935;-77
2021/07/21 01:04:37;;;;;;;;;;;;;;;;;;1037354;28;20389;-77
2021/07/21 01:05:07;;;;;;;;;;;;;;;;;;1037213;28;20113;-77
2021/07/21 01:05:41;;;;;;;;;;;;;;;;;;1041404;28;20395;-78
2021/07/21 01:06:12;;;;;;;;;;;;;;;;;;1037365;28;19932;-78
2021/07/21 01:06:42;;;;;;;;;;;;;;;;;;1032808;28;19921;-77
2021/07/21 01:07:12;;;;;;;;;;;;;;;;;;1033399;28;19910;-76
2021/07/21 01:07:42;;;;;;;;;;;;;;;;;;1037073;28;19914;-78
2021/07/21 01:08:13;;;;;;;;;;;;;;;;;;1041161;28;19920;-78
2021/07/21 01:08:43;;;;;;;;;;;;;;;;;;1045271;28;19908;-77
2021/07/21 01:09:13;;;;;;;;;;;;;;;;;;1036879;28;19917;-76
2021/07/21 01:09:44;;;;;;;;;;;;;;;;;;1037093;28;20445;-76
2021/07/21 01:10:14;;;;;;;;;;;;;;;;;;1037134;28;20007;-77
2021/07/21 01:10:44;;;;;;;;;;;;;;;;;;1037070;28;19909;-77
2021/07/21 01:11:15;;;;;;;;;;;;;;;;;;1036922;28;19988;-76
2021/07/21 01:11:45;;;;;;;;;;;;;;;;;;1037150;28;19969;-77
2021/07/21 01:12:15;;;;;;;;;;;;;;;;;;1037027;28;20004;-76
2021/07/21 01:12:46;;;;;;;;;;;;;;;;;;1036930;28;19913;-76
2021/07/21 01:13:16;;;;;;;;;;;;;;;;;;1041145;28;19916;-77
2021/07/21 01:13:46;;;;;;;;;;;;;;;;;;1036939;28;19913;-77
2021/07/21 01:14:17;;;;;;;;;;;;;;;;;;1037076;28;19968;-77
2021/07/21 01:14:47;;;;;;;;;;;;;;;;;;1036939;28;19936;-77
2021/07/21 01:15:17;;;;;;;;;;;;;;;;;;1037024;28;20314;-77
2021/07/21 01:15:47;;;;;;;;;;;;;;;;;;1036951;28;19914;-77
2021/07/21 01:16:18;;;;;;;;;;;;;;;;;;1037097;28;19983;-77
2021/07/21 01:16:48;;;;;;;;;;;;;;;;;;1037033;28;19913;-77
2021/07/21 01:17:18;;;;;;;;;;;;;;;;;;1032986;28;19918;-78
2021/07/21 01:17:48;;;;;;;;;;;;;;;;;;1029030;28;20351;-77
2021/07/21 01:18:19;;;;;;;;;;;;;;;;;;1037224;28;19906;-76
2021/07/21 01:18:49;;;;;;;;;;;;;;;;;;1037003;28;19909;-77
2021/07/21 01:19:19;;;;;;;;;;;;;;;;;;1040820;28;19905;-77
2021/07/21 01:19:49;;;;;;;;;;;;;;;;;;1040993;28;19925;-77
2021/07/21 01:20:20;;;;;;;;;;;;;;;;;;1032957;28;20000;-76
2021/07/21 01:20:50;;;;;;;;;;;;;;;;;;1032958;28;19997;-76
2021/07/21 01:21:20;;;;;;;;;;;;;;;;;;1037028;28;20004;-77
2021/07/21 01:21:50;;;;;;;;;;;;;;;;;;1041031;28;20337;-76
2021/07/21 01:22:21;;;;;;;;;;;;;;;;;;1040924;28;20044;-77
2021/07/21 01:22:51;;;;;;;;;;;;;;;;;;1041146;28;19905;-77
2021/07/21 01:23:22;;;;;;;;;;;;;;;;;;1032843;28;19910;-77
2021/07/21 01:23:52;;;;;;;;;;;;;;;;;;1032950;28;20335;-77
2021/07/21 01:24:22;;;;;;;;;;;;;;;;;;1037028;28;19909;-76
2021/07/21 01:24:52;;;;;;;;;;;;;;;;;;1032895;28;20001;-77
2021/07/21 01:25:23;;;;;;;;;;;;;;;;;;1037097;28;19914;-76
2021/07/21 01:25:53;;;;;;;;;;;;;;;;;;1033040;28;19965;-75
2021/07/21 01:26:23;;;;;;;;;;;;;;;;;;1032955;28;19906;-76
2021/07/21 01:26:53;;;;;;;;;;;;;;;;;;1037164;28;20446;-76
2021/07/21 01:27:24;;;;;;;;;;;;;;;;;;1045165;28;19908;-75
2021/07/21 01:27:54;;;;;;;;;;;;;;;;;;1041074;28;19905;-76
2021/07/21 01:28:24;;;;;;;;;;;;;;;;;;1041102;28;19964;-77
2021/07/21 01:28:54;;;;;;;;;;;;;;;;;;1041003;28;19936;-76
2021/07/21 01:29:25;;;;;;;;;;;;;;;;;;1036950;28;20008;-76
2021/07/21 01:29:55;;;;;;;;;;;;;;;;;;1036773;28;19925;-76
2021/07/21 01:30:25;;;;;;;;;;;;;;;;;;1036897;28;19905;-77
2021/07/21 01:30:55;;;;;;;;;;;;;;;;;;1036962;28;19906;-77
2021/07/21 01:31:26;;;;;;;;;;;;;;;;;;1036913;28;20421;-76
2021/07/21 01:31:56;;;;;;;;;;;;;;;;;;1036818;28;19927;-76
2021/07/21 01:32:26;;;;;;;;;;;;;;;;;;1037063;28;19965;-76
2021/07/21 01:32:56;;;;;;;;;;;;;;;;;;1037065;28;19985;-77
2021/07/21 01:33:27;;;;;;;;;;;;;;;;;;1036931;28;20411;-77
2021/07/21 01:33:57;;;;;;;;;;;;;;;;;;1041070;28;19905;-77
2021/07/21 01:34:27;;;;;;;;;;;;;;;;;;1041160;28;19925;-76
2021/07/21 01:34:57;;;;;;;;;;;;;;;;;;1041199;28;20004;-76
2021/07/21 01:35:28;;;;;;;;;;;;;;;;;;1045248;28;20283;-76
2021/07/21 01:35:58;;;;;;;;;;;;;;;;;;1037363;28;20004;-77
2021/07/21 01:36:28;;;;;;;;;;;;;;;;;;1037233;28;20052;-77
2021/07/21 01:36:58;;;;;;;;;;;;;;;;;;1045378;28;19954;-78
2021/07/21 01:37:29;;;;;;;;;;;;;;;;;;1045338;28;20393;-78
2021/07/21 01:37:59;;;;;;;;;;;;;;;;;;1041192;28;19905;-78
2021/07/21 01:38:29;;;;;;;;;;;;;;;;;;1041071;28;20489;-76
2021/07/21 01:39:03;;;;;;;;;;;;;;;;;;1036866;28;19956;-77
2021/07/21 01:39:33;;;;;;;;;;;;;;;;;;1036949;28;20268;-77
2021/07/21 01:40:03;;;;;;;;;;;;;;;;;;1037384;28;19913;-76
2021/07/21 01:40:34;;;;;;;;;;;;;;;;;;1037283;28;19953;-77
2021/07/21 01:41:04;;;;;;;;;;;;;;;;;;1045282;28;19943;-77
2021/07/21 01:41:34;;;;;;;;;;;;;;;;;;1041020;28;20394;-76
2021/07/21 01:42:04;;;;;;;;;;;;;;;;;;1041009;28;19909;-77
2021/07/21 01:42:35;;;;;;;;;;;;;;;;;;1036832;28;19909;-77
2021/07/21 01:43:05;;;;;;;;;;;;;;;;;;1032923;28;19956;-77
2021/07/21 01:43:35;;;;;;;;;;;;;;;;;;1041065;28;19980;-77
2021/07/21 01:44:05;;;;;;;;;;;;;;;;;;1041231;28;19955;-77
2021/07/21 01:44:36;;;;;;;;;;;;;;;;;;1040793;28;20000;-77
2021/07/21 01:45:06;;;;;;;;;;;;;;;;;;1040927;28;19905;-77
2021/07/21 01:45:36;;;;;;;;;;;;;;;;;;1037000;28;19905;-77
2021/07/21 01:46:06;;;;;;;;;;;;;;;;;;1036840;28;19909;-77
2021/07/21 01:46:37;;;;;;;;;;;;;;;;;;1036985;28;19909;-76
2021/07/21 01:47:07;;;;;;;;;;;;;;;;;;1036473;28;20391;-77
2021/07/21 01:47:37;;;;;;;;;;;;;;;;;;1036906;28;19910;-76
2021/07/21 01:48:08;;;;;;;;;;;;;;;;;;1037197;28;20260;-76
2021/07/21 01:48:38;;;;;;;;;;;;;;;;;;1040855;28;19959;-77
2021/07/21 01:49:08;;;;;;;;;;;;;;;;;;1040771;28;19909;-76
2021/07/21 01:49:38;;;;;;;;;;;;;;;;;;1041084;28;20008;-76
2021/07/21 01:50:09;;;;;;;;;;;;;;;;;;1040958;28;20477;-76
2021/07/21 01:50:39;;;;;;;;;;;;;;;;;;1036814;28;19996;-77
2021/07/21 01:51:09;;;;;;;;;;;;;;;;;;1036882;28;19996;-77
2021/07/21 01:51:39;;;;;;;;;;;;;;;;;;1037062;28;19964;-77
2021/07/21 01:52:10;;;;;;;;;;;;;;;;;;1036813;28;19983;-76
2021/07/21 01:52:40;;;;;;;;;;;;;;;;;;1040907;28;20367;-77
2021/07/21 01:53:10;;;;;;;;;;;;;;;;;;1040917;28;20001;-77
2021/07/21 01:53:41;;;;;;;;;;;;;;;;;;1041001;28;19905;-76
2021/07/21 01:54:11;;;;;;;;;;;;;;;;;;1040918;28;19912;-77
2021/07/21 01:54:41;;;;;;;;;;;;;;;;;;1041001;28;20316;-77
2021/07/21 01:55:11;;;;;;;;;;;;;;;;;;1036720;28;19905;-77
2021/07/21 01:55:42;;;;;;;;;;;;;;;;;;1036989;28;19909;-77
2021/07/21 01:56:12;;;;;;;;;;;;;;;;;;1036857;28;20000;-77
2021/07/21 01:56:42;;;;;;;;;;;;;;;;;;1036891;28;20422;-77
2021/07/21 01:57:12;;;;;;;;;;;;;;;;;;1037207;28;19941;-77
2021/07/21 01:57:43;;;;;;;;;;;;;;;;;;1045471;28;20004;-76
2021/07/21 01:58:13;;;;;;;;;;;;;;;;;;1045186;28;19948;-77
2021/07/21 01:58:43;;;;;;;;;;;;;;;;;;1045115;28;19916;-76
2021/07/21 01:59:13;;;;;;;;;;;;;;;;;;1044942;28;19951;-77
2021/07/21 01:59:44;;;;;;;;;;;;;;;;;;1037161;28;19912;-77
2021/07/21 02:00:14;;;;;;;;;;;;;;;;;;1037191;28;19983;-77
2021/07/21 02:00:45;;;;;;;;;;;;;;;;;;1037180;28;20384;-77
2021/07/21 02:01:15;;;;;;;;;;;;;;;;;;1045101;28;20293;-77
2021/07/21 02:01:45;;;;;;;;;;;;;;;;;;1045057;28;19905;-77
2021/07/21 02:02:16;;;;;;;;;;;;;;;;;;1045031;28;19939;-77
2021/07/21 02:02:46;;;;;;;;;;;;;;;;;;1045036;28;19908;-77
2021/07/21 02:03:16;;;;;;;;;;;;;;;;;;1036705;28;19996;-77
2021/07/21 02:03:46;;;;;;;;;;;;;;;;;;1036840;28;19967;-76
2021/07/21 02:04:17;;;;;;;;;;;;;;;;;;1037024;28;20392;-76
2021/07/21 02:04:47;;;;;;;;;;;;;;;;;;1036860;28;19910;-77
2021/07/21 02:05:17;;;;;;;;;;;;;;;;;;1040931;28;20371;-77
2021/07/21 02:05:48;;;;;;;;;;;;;;;;;;1041015;28;20048;-77
2021/07/21 02:06:18;;;;;;;;;;;;;;;;;;1036985;28;19949;-77
2021/07/21 02:06:48;;;;;;;;;;;;;;;;;;1037041;28;19910;-77
2021/07/21 02:07:18;;;;;;;;;;;;;;;;;;1036878;28;19996;-77
2021/07/21 02:07:48;;;;;;;;;;;;;;;;;;1036911;28;20426;-77
2021/07/21 02:08:19;;;;;;;;;;;;;;;;;;1041166;28;19905;-76
2021/07/21 02:08:49;;;;;;;;;;;;;;;;;;1040989;28;19947;-77
2021/07/21 02:09:19;;;;;;;;;;;;;;;;;;1036539;28;19905;-76
2021/07/21 02:09:49;;;;;;;;;;;;;;;;;;1032841;28;19961;-77
2021/07/21 02:10:20;;;;;;;;;;;;;;;;;;1032807;28;19993;-77
2021/07/21 02:10:50;;;;;;;;;;;;;;;;;;1032493;28;20004;-77
2021/07/21 02:11:20;;;;;;;;;;;;;;;;;;1032804;28;19913;-77
2021/07/21 02:11:50;;;;;;;;;;;;;;;;;;1036753;28;20031;-76
2021/07/21 02:12:21;;;;;;;;;;;;;;;;;;1036831;28;19947;-77
2021/07/21 02:12:51;;;;;;;;;;;;;;;;;;1044939;28;19954;-77
2021/07/21 02:13:21;;;;;;;;;;;;;;;;;;1041088;28;19916;-77
2021/07/21 02:13:51;;;;;;;;;;;;;;;;;;1036640;28;19909;-76
2021/07/21 02:14:22;;;;;;;;;;;;;;;;;;1036922;28;19972;-76
2021/07/21 02:14:52;;;;;;;;;;;;;;;;;;1028691;28;19910;-76
2021/07/21 02:15:22;;;;;;;;;;;;;;;;;;1032860;28;19909;-76
2021/07/21 02:15:52;;;;;;;;;;;;;;;;;;1036825;28;19917;-77
2021/07/21 02:16:23;;;;;;;;;;;;;;;;;;1036913;28;20054;-77
2021/07/21 02:16:53;;;;;;;;;;;;;;;;;;1045146;28;19920;-76
2021/07/21 02:17:23;;;;;;;;;;;;;;;;;;1040908;28;20383;-77
2021/07/21 02:17:53;;;;;;;;;;;;;;;;;;1040979;28;19909;-76
2021/07/21 02:18:24;;;;;;;;;;;;;;;;;;1040930;28;19906;-77
2021/07/21 02:18:54;;;;;;;;;;;;;;;;;;1040880;28;20000;-76
2021/07/21 02:19:24;;;;;;;;;;;;;;;;;;1045000;28;20393;-77
2021/07/21 02:19:54;;;;;;;;;;;;;;;;;;1045021;28;19905;-77
2021/07/21 02:20:25;;;;;;;;;;;;;;;;;;1036794;28;19916;-77
2021/07/21 02:20:55;;;;;;;;;;;;;;;;;;1032890;28;20392;-77
2021/07/21 02:21:25;;;;;;;;;;;;;;;;;;1036624;28;19909;-77
2021/07/21 02:21:56;;;;;;;;;;;;;;;;;;1036859;28;19937;-77
2021/07/21 02:22:28;;;;;;;;;;;;;;;;;;1044898;28;20007;-77
2021/07/21 02:22:58;;;;;;;;;;;;;;;;;;1040661;28;20334;-77
2021/07/21 02:23:28;;;;;;;;;;;;;;;;;;1036763;28;19910;-77
2021/07/21 02:23:58;;;;;;;;;;;;;;;;;;1036644;28;19963;-78
2021/07/21 02:24:29;;;;;;;;;;;;;;;;;;1036747;28;19910;-77
2021/07/21 02:24:59;;;;;;;;;;;;;;;;;;1040995;28;20413;-77
2021/07/21 02:25:29;;;;;;;;;;;;;;;;;;1036775;28;20000;-77
2021/07/21 02:25:59;;;;;;;;;;;;;;;;;;1036813;28;20362;-77
2021/07/21 02:26:30;;;;;;;;;;;;;;;;;;1036751;28;19989;-77
2021/07/21 02:27:00;;;;;;;;;;;;;;;;;;1036879;28;19905;-77
2021/07/21 02:27:30;;;;;;;;;;;;;;;;;;1040857;28;19942;-77
2021/07/21 02:28:00;;;;;;;;;;;;;;;;;;1040991;28;20248;-77
2021/07/21 02:28:31;;;;;;;;;;;;;;;;;;1040898;28;19910;-77
2021/07/21 02:29:01;;;;;;;;;;;;;;;;;;1040810;28;19971;-77
2021/07/21 02:29:32;;;;;;;;;;;;;;;;;;1041182;28;19905;-77
2021/07/21 02:30:02;;;;;;;;;;;;;;;;;;1044530;28;19905;-77
2021/07/21 02:30:32;;;;;;;;;;;;;;;;;;1043185;28;19987;-77
2021/07/21 02:31:03;;;;;;;;;;;;;;;;;;1040853;28;20454;-77
2021/07/21 02:31:33;;;;;;;;;;;;;;;;;;1040657;28;20028;-77
2021/07/21 02:32:03;;;;;;;;;;;;;;;;;;1036725;28;20360;-76
2021/07/21 02:32:34;;;;;;;;;;;;;;;;;;1036495;28;19909;-77
2021/07/21 02:33:04;;;;;;;;;;;;;;;;;;1044989;28;20306;-76
2021/07/21 02:33:35;;;;;;;;;;;;;;;;;;1040604;28;19917;-76
2021/07/21 02:34:05;;;;;;;;;;;;;;;;;;1040828;28;20367;-76
2021/07/21 02:34:35;;;;;;;;;;;;;;;;;;1036593;28;19906;-77
2021/07/21 02:35:05;;;;;;;;;;;;;;;;;;1032675;28;19906;-76
2021/07/21 02:35:36;;;;;;;;;;;;;;;;;;1040980;28;19935;-77
2021/07/21 02:36:06;;;;;;;;;;;;;;;;;;1036646;28;19908;-76
2021/07/21 02:36:36;;;;;;;;;;;;;;;;;;1036739;28;20431;-76
2021/07/21 02:37:06;;;;;;;;;;;;;;;;;;1036758;28;19974;-77
2021/07/21 02:37:37;;;;;;;;;;;;;;;;;;1036746;28;19955;-76
2021/07/21 02:38:07;;;;;;;;;;;;;;;;;;1036595;28;19905;-76
2021/07/21 02:38:38;;;;;;;;;;;;;;;;;;1040731;28;19951;-77
2021/07/21 02:39:08;;;;;;;;;;;;;;;;;;1036390;28;19905;-77
2021/07/21 02:39:38;;;;;;;;;;;;;;;;;;1036894;28;19909;-76
2021/07/21 02:40:09;;;;;;;;;;;;;;;;;;1036785;28;19984;-77
2021/07/21 02:40:39;;;;;;;;;;;;;;;;;;1036656;28;20438;-77
2021/07/21 02:41:09;;;;;;;;;;;;;;;;;;1036762;28;20320;-76
2021/07/21 02:41:42;;;;;;;;;;;;;;;;;;1036783;28;20005;-77
2021/07/21 02:42:13;;;;;;;;;;;;;;;;;;1040658;28;20031;-76
2021/07/21 02:42:43;;;;;;;;;;;;;;;;;;1040801;28;19905;-76
2021/07/21 02:43:13;;;;;;;;;;;;;;;;;;1040799;28;20000;-76
2021/07/21 02:43:43;;;;;;;;;;;;;;;;;;1040913;28;20323;-76
2021/07/21 02:44:14;;;;;;;;;;;;;;;;;;1041001;28;20268;-77
2021/07/21 02:44:44;;;;;;;;;;;;;;;;;;1044747;28;19995;-77
2021/07/21 02:45:14;;;;;;;;;;;;;;;;;;1045035;28;19912;-77
2021/07/21 02:45:44;;;;;;;;;;;;;;;;;;1044956;28;20297;-77
2021/07/21 02:46:15;;;;;;;;;;;;;;;;;;1040761;28;19905;-77
2021/07/21 02:46:45;;;;;;;;;;;;;;;;;;1036631;28;19914;-76
2021/07/21 02:47:15;;;;;;;;;;;;;;;;;;1036830;28;20106;-76
2021/07/21 02:47:45;;;;;;;;;;;;;;;;;;1036653;28;19910;-77
2021/07/21 02:48:16;;;;;;;;;;;;;;;;;;1036744;28;19940;-76
2021/07/21 02:48:46;;;;;;;;;;;;;;;;;;1040781;28;19992;-76
2021/07/21 02:49:16;;;;;;;;;;;;;;;;;;1036428;28;20264;-76
2021/07/21 02:49:46;;;;;;;;;;;;;;;;;;1036726;28;19955;-76
2021/07/21 02:50:17;;;;;;;;;;;;;;;;;;1032669;28;19973;-76
2021/07/21 02:50:47;;;;;;;;;;;;;;;;;;1028595;28;20000;-76
2021/07/21 02:51:18;;;;;;;;;;;;;;;;;;1028559;28;19921;-76
2021/07/21 02:51:48;;;;;;;;;;;;;;;;;;1032744;28;20009;-76
2021/07/21 02:52:18;;;;;;;;;;;;;;;;;;1032552;28;19961;-76
2021/07/21 02:52:48;;;;;;;;;;;;;;;;;;1032620;28;19917;-76
2021/07/21 02:53:19;;;;;;;;;;;;;;;;;;1036853;28;19910;-76
2021/07/21 02:53:49;;;;;;;;;;;;;;;;;;1036670;28;19909;-76
2021/07/21 02:54:19;;;;;;;;;;;;;;;;;;1040415;28;20040;-76
2021/07/21 02:54:50;;;;;;;;;;;;;;;;;;1040434;28;19909;-76
2021/07/21 02:55:20;;;;;;;;;;;;;;;;;;1040377;28;20319;-76
2021/07/21 02:55:50;;;;;;;;;;;;;;;;;;1036688;28;19910;-76
2021/07/21 02:56:20;;;;;;;;;;;;;;;;;;1032740;28;19971;-76
2021/07/21 02:56:50;;;;;;;;;;;;;;;;;;1036781;28;19948;-76
2021/07/21 02:57:21;;;;;;;;;;;;;;;;;;1040925;28;20397;-76
2021/07/21 02:57:51;;;;;;;;;;;;;;;;;;1040765;28;19909;-76
2021/07/21 02:58:21;;;;;;;;;;;;;;;;;;1040250;28;19909;-76
2021/07/21 02:58:52;;;;;;;;;;;;;;;;;;1036223;28;19992;-76
2021/07/21 02:59:22;;;;;;;;;;;;;;;;;;1036405;28;19906;-76
2021/07/21 02:59:52;;;;;;;;;;;;;;;;;;1040528;28;19909;-75
2021/07/21 03:00:24;;;;;;;;;;;;;;;;;;1040909;28;19909;-76
2021/07/21 03:00:54;;;;;;;;;;;;;;;;;;1041026;28;19944;-76
2021/07/21 03:01:25;;;;;;;;;;;;;;;;;;1040458;28;20035;-76
2021/07/21 03:01:56;;;;;;;;;;;;;;;;;;1036724;28;19949;-76
2021/07/21 03:02:26;;;;;;;;;;;;;;;;;;1036797;28;19916;-76
2021/07/21 03:02:56;;;;;;;;;;;;;;;;;;1036632;28;19952;-76
2021/07/21 03:03:27;;;;;;;;;;;;;;;;;;1037272;28;19910;-76
2021/07/21 03:03:57;;;;;;;;;;;;;;;;;;1047524;28;20062;-75
2021/07/21 03:04:27;;;;;;;;;;;;;;;;;;1049330;28;19909;-75
2021/07/21 03:04:58;;;;;;;;;;;;;;;;;;1048511;28;19917;-75
2021/07/21 03:05:28;;;;;;;;;;;;;;;;;;1047966;28;20432;-76
2021/07/21 03:05:58;;;;;;;;;;;;;;;;;;1040258;28;20270;-75
2021/07/21 03:06:28;;;;;;;;;;;;;;;;;;1040206;28;19969;-75
2021/07/21 03:06:59;;;;;;;;;;;;;;;;;;1039617;28;19933;-76
2021/07/21 03:07:29;;;;;;;;;;;;;;;;;;1036741;28;19956;-76
2021/07/21 03:07:59;;;;;;;;;;;;;;;;;;1036671;28;20359;-76
2021/07/21 03:08:29;;;;;;;;;;;;;;;;;;1040859;28;19947;-75
2021/07/21 03:09:00;;;;;;;;;;;;;;;;;;1040852;28;19924;-75
2021/07/21 03:09:30;;;;;;;;;;;;;;;;;;1040817;28;19972;-75
2021/07/21 03:10:00;;;;;;;;;;;;;;;;;;1040653;28;19902;-76
2021/07/21 03:10:30;;;;;;;;;;;;;;;;;;1036727;28;19906;-76
2021/07/21 03:11:01;;;;;;;;;;;;;;;;;;1036810;28;19913;-76
2021/07/21 03:11:31;;;;;;;;;;;;;;;;;;1036624;28;19902;-76
2021/07/21 03:12:01;;;;;;;;;;;;;;;;;;1037117;28;20371;-76
2021/07/21 03:12:32;;;;;;;;;;;;;;;;;;1040700;28;20363;-76
2021/07/21 03:13:02;;;;;;;;;;;;;;;;;;1040972;28;19905;-76
2021/07/21 03:13:32;;;;;;;;;;;;;;;;;;1040759;28;19906;-76
2021/07/21 03:14:02;;;;;;;;;;;;;;;;;;1036785;28;19992;-76
2021/07/21 03:14:33;;;;;;;;;;;;;;;;;;1036742;28;20446;-76
2021/07/21 03:15:03;;;;;;;;;;;;;;;;;;1040858;28;19913;-76
2021/07/21 03:15:33;;;;;;;;;;;;;;;;;;1040829;28;19912;-76
2021/07/21 03:16:03;;;;;;;;;;;;;;;;;;1040648;28;19912;-76
2021/07/21 03:16:34;;;;;;;;;;;;;;;;;;1040717;28;19955;-76
2021/07/21 03:17:05;;;;;;;;;;;;;;;;;;1040935;28;19902;-76
2021/07/21 03:17:35;;;;;;;;;;;;;;;;;;1036696;28;20346;-76
2021/07/21 03:18:06;;;;;;;;;;;;;;;;;;1040860;28;20287;-76
2021/07/21 03:18:36;;;;;;;;;;;;;;;;;;1040672;28;19912;-76
2021/07/21 03:19:06;;;;;;;;;;;;;;;;;;1036707;28;19901;-76
2021/07/21 03:19:39;;;;;;;;;;;;;;;;;;1040854;28;19984;-76
2021/07/21 03:20:10;;;;;;;;;;;;;;;;;;1040785;28;19952;-76
2021/07/21 03:20:40;;;;;;;;;;;;;;;;;;1041038;28;19901;-76
2021/07/21 03:21:10;;;;;;;;;;;;;;;;;;1040546;28;19905;-76
2021/07/21 03:21:41;;;;;;;;;;;;;;;;;;1037054;28;19985;-75
2021/07/21 03:22:11;;;;;;;;;;;;;;;;;;1036534;28;19906;-76
2021/07/21 03:22:41;;;;;;;;;;;;;;;;;;1032498;28;19913;-76
2021/07/21 03:23:11;;;;;;;;;;;;;;;;;;1032709;28;19909;-76
2021/07/21 03:23:42;;;;;;;;;;;;;;;;;;1030277;28;20079;-76
2021/07/21 03:24:12;;;;;;;;;;;;;;;;;;1032617;28;19913;-76
2021/07/21 03:24:43;;;;;;;;;;;;;;;;;;1036500;28;19910;-76
2021/07/21 03:25:14;;;;;;;;;;;;;;;;;;1032849;28;19956;-76
2021/07/21 03:25:44;;;;;;;;;;;;;;;;;;1040692;28;20305;-76
2021/07/21 03:26:14;;;;;;;;;;;;;;;;;;1040490;28;20007;-76
2021/07/21 03:26:44;;;;;;;;;;;;;;;;;;1036460;28;19948;-76
2021/07/21 03:27:15;;;;;;;;;;;;;;;;;;1039782;28;19910;-76
2021/07/21 03:27:45;;;;;;;;;;;;;;;;;;1040782;28;20364;-76
2021/07/21 03:28:15;;;;;;;;;;;;;;;;;;1040744;28;19992;-76
2021/07/21 03:28:45;;;;;;;;;;;;;;;;;;1036690;28;20418;-76
2021/07/21 03:29:16;;;;;;;;;;;;;;;;;;1036558;28;20087;-76
2021/07/21 03:29:46;;;;;;;;;;;;;;;;;;1032860;28;19965;-76
2021/07/21 03:30:16;;;;;;;;;;;;;;;;;;1036529;28;19941;-76
2021/07/21 03:30:46;;;;;;;;;;;;;;;;;;1040930;28;19948;-76
2021/07/21 03:31:17;;;;;;;;;;;;;;;;;;1040791;28;20297;-76
2021/07/21 03:31:47;;;;;;;;;;;;;;;;;;1041050;28;19913;-76